sensor_id;sensor_type;location;lat;lon;timestamp;P1;durP1;ratioP1;P2;durP2;ratioP2
25948;SDS011;13961;51.178;4.448;2022-10-29T00:02:01;14.93;;;6.55;;
25948;SDS011;13961;51.178;4.448;2022-10-29T00:04:28;16.17;;;7.93;;
25948;SDS011;13961;51.178;4.448;2022-10-29T00:06:55;13.25;;;6.38;;
25948;SDS011;13961;51.178;4.448;2022-10-29T00:09:21;12.20;;;5.88;;
25948;SDS011;13961;51.178;4.448;2022-10-29T00:11:47;14.25;;;6.05;;
25948;SDS011;13961;51.178;4.448;2022-10-29T00:14:14;15.25;;;6.55;;
25948;SDS011;13961;51.178;4.448;2022-10-29T00:16:41;12.93;;;6.68;;
25948;SDS011;13961;51.178;4.448;2022-10-29T00:19:07;15.13;;;6.80;;
25948;SDS011;13961;51.178;4.448;2022-10-29T00:21:34;10.80;;;6.28;;
25948;SDS011;13961;51.178;4.448;2022-10-29T00:24:01;17.85;;;6.90;;
25948;SDS011;13961;51.178;4.448;2022-10-29T00:26:28;17.52;;;7.40;;
25948;SDS011;13961;51.178;4.448;2022-10-29T00:28:55;16.98;;;6.75;;
25948;SDS011;13961;51.178;4.448;2022-10-29T00:31:22;12.45;;;6.20;;
25948;SDS011;13961;51.178;4.448;2022-10-29T00:33:48;15.75;;;6.43;;
25948;SDS011;13961;51.178;4.448;2022-10-29T00:36:26;15.40;;;6.82;;
25948;SDS011;13961;51.178;4.448;2022-10-29T00:38:53;16.67;;;7.05;;
25948;SDS011;13961;51.178;4.448;2022-10-29T00:41:20;14.73;;;6.28;;
25948;SDS011;13961;51.178;4.448;2022-10-29T00:44:35;17.75;;;7.30;;
25948;SDS011;13961;51.178;4.448;2022-10-29T00:46:45;16.63;;;6.65;;
25948;SDS011;13961;51.178;4.448;2022-10-29T00:49:14;11.95;;;6.22;;
25948;SDS011;13961;51.178;4.448;2022-10-29T00:51:41;15.50;;;6.93;;
25948;SDS011;13961;51.178;4.448;2022-10-29T00:54:08;19.38;;;7.40;;
25948;SDS011;13961;51.178;4.448;2022-10-29T00:56:38;12.75;;;7.50;;
25948;SDS011;13961;51.178;4.448;2022-10-29T00:59:11;16.50;;;7.22;;
25948;SDS011;13961;51.178;4.448;2022-10-29T01:01:40;15.02;;;7.10;;
25948;SDS011;13961;51.178;4.448;2022-10-29T01:04:07;15.70;;;6.85;;
25948;SDS011;13961;51.178;4.448;2022-10-29T01:06:34;19.13;;;7.32;;
25948;SDS011;13961;51.178;4.448;2022-10-29T01:09:02;18.15;;;7.25;;
25948;SDS011;13961;51.178;4.448;2022-10-29T01:16:45;14.02;;;6.80;;
25948;SDS011;13961;51.178;4.448;2022-10-29T01:21:59;17.10;;;7.85;;
25948;SDS011;13961;51.178;4.448;2022-10-29T01:33:25;15.85;;;6.85;;
25948;SDS011;13961;51.178;4.448;2022-10-29T01:36:24;12.98;;;6.30;;
25948;SDS011;13961;51.178;4.448;2022-10-29T01:39:19;15.05;;;6.57;;
25948;SDS011;13961;51.178;4.448;2022-10-29T01:42:04;18.25;;;6.35;;
25948;SDS011;13961;51.178;4.448;2022-10-29T01:47:10;17.00;;;7.45;;
25948;SDS011;13961;51.178;4.448;2022-10-29T01:49:40;13.20;;;6.45;;
25948;SDS011;13961;51.178;4.448;2022-10-29T01:52:09;16.15;;;6.40;;
25948;SDS011;13961;51.178;4.448;2022-10-29T01:54:43;14.60;;;6.30;;
25948;SDS011;13961;51.178;4.448;2022-10-29T01:57:27;11.07;;;6.50;;
25948;SDS011;13961;51.178;4.448;2022-10-29T02:00:04;12.55;;;6.25;;
25948;SDS011;13961;51.178;4.448;2022-10-29T02:08:26;16.10;;;6.70;;
25948;SDS011;13961;51.178;4.448;2022-10-29T02:13:49;13.57;;;6.30;;
25948;SDS011;13961;51.178;4.448;2022-10-29T02:16:20;13.98;;;7.15;;
25948;SDS011;13961;51.178;4.448;2022-10-29T02:18:47;14.70;;;6.75;;
25948;SDS011;13961;51.178;4.448;2022-10-29T02:21:18;11.93;;;6.80;;
25948;SDS011;13961;51.178;4.448;2022-10-29T02:23:45;16.88;;;7.07;;
25948;SDS011;13961;51.178;4.448;2022-10-29T02:26:11;13.45;;;7.05;;
25948;SDS011;13961;51.178;4.448;2022-10-29T02:28:37;15.65;;;8.10;;
25948;SDS011;13961;51.178;4.448;2022-10-29T02:31:03;18.50;;;6.93;;
25948;SDS011;13961;51.178;4.448;2022-10-29T02:33:30;15.18;;;7.15;;
25948;SDS011;13961;51.178;4.448;2022-10-29T02:35:55;13.95;;;6.72;;
25948;SDS011;13961;51.178;4.448;2022-10-29T02:38:21;22.98;;;8.70;;
25948;SDS011;13961;51.178;4.448;2022-10-29T02:40:46;15.95;;;6.93;;
25948;SDS011;13961;51.178;4.448;2022-10-29T02:43:12;14.57;;;7.57;;
25948;SDS011;13961;51.178;4.448;2022-10-29T02:45:38;16.40;;;7.90;;
25948;SDS011;13961;51.178;4.448;2022-10-29T02:48:04;16.48;;;6.88;;
25948;SDS011;13961;51.178;4.448;2022-10-29T02:50:29;18.20;;;7.50;;
25948;SDS011;13961;51.178;4.448;2022-10-29T02:52:55;14.80;;;7.85;;
25948;SDS011;13961;51.178;4.448;2022-10-29T02:55:21;17.33;;;8.23;;
25948;SDS011;13961;51.178;4.448;2022-10-29T02:57:48;20.73;;;8.00;;
25948;SDS011;13961;51.178;4.448;2022-10-29T03:00:14;18.95;;;7.93;;
25948;SDS011;13961;51.178;4.448;2022-10-29T03:02:40;19.23;;;8.00;;
25948;SDS011;13961;51.178;4.448;2022-10-29T03:05:06;17.55;;;8.13;;
25948;SDS011;13961;51.178;4.448;2022-10-29T03:07:35;18.42;;;7.53;;
25948;SDS011;13961;51.178;4.448;2022-10-29T03:10:05;18.08;;;7.70;;
25948;SDS011;13961;51.178;4.448;2022-10-29T03:12:31;16.30;;;7.47;;
25948;SDS011;13961;51.178;4.448;2022-10-29T03:14:57;18.80;;;7.47;;
25948;SDS011;13961;51.178;4.448;2022-10-29T03:17:23;19.67;;;7.60;;
25948;SDS011;13961;51.178;4.448;2022-10-29T03:19:49;14.32;;;6.93;;
25948;SDS011;13961;51.178;4.448;2022-10-29T03:22:14;15.13;;;7.32;;
25948;SDS011;13961;51.178;4.448;2022-10-29T03:24:41;16.27;;;7.30;;
25948;SDS011;13961;51.178;4.448;2022-10-29T03:27:07;15.90;;;7.13;;
25948;SDS011;13961;51.178;4.448;2022-10-29T03:29:32;14.40;;;6.40;;
25948;SDS011;13961;51.178;4.448;2022-10-29T03:31:58;13.00;;;6.63;;
25948;SDS011;13961;51.178;4.448;2022-10-29T03:34:24;16.77;;;6.45;;
25948;SDS011;13961;51.178;4.448;2022-10-29T03:36:49;16.50;;;5.90;;
25948;SDS011;13961;51.178;4.448;2022-10-29T03:39:15;16.00;;;5.72;;
25948;SDS011;13961;51.178;4.448;2022-10-29T03:41:41;12.23;;;6.53;;
25948;SDS011;13961;51.178;4.448;2022-10-29T03:44:06;12.25;;;6.43;;
25948;SDS011;13961;51.178;4.448;2022-10-29T03:46:32;16.48;;;5.65;;
25948;SDS011;13961;51.178;4.448;2022-10-29T03:48:58;13.32;;;5.97;;
25948;SDS011;13961;51.178;4.448;2022-10-29T03:51:25;17.88;;;6.47;;
25948;SDS011;13961;51.178;4.448;2022-10-29T03:53:51;22.00;;;5.60;;
25948;SDS011;13961;51.178;4.448;2022-10-29T03:56:17;11.63;;;5.90;;
25948;SDS011;13961;51.178;4.448;2022-10-29T03:58:43;14.15;;;6.00;;
25948;SDS011;13961;51.178;4.448;2022-10-29T04:01:08;13.27;;;5.90;;
25948;SDS011;13961;51.178;4.448;2022-10-29T04:03:35;14.43;;;5.55;;
25948;SDS011;13961;51.178;4.448;2022-10-29T04:06:07;14.35;;;6.03;;
25948;SDS011;13961;51.178;4.448;2022-10-29T04:08:37;15.55;;;5.95;;
25948;SDS011;13961;51.178;4.448;2022-10-29T04:11:04;15.00;;;5.80;;
25948;SDS011;13961;51.178;4.448;2022-10-29T04:13:30;16.60;;;5.78;;
25948;SDS011;13961;51.178;4.448;2022-10-29T04:15:57;10.65;;;5.22;;
25948;SDS011;13961;51.178;4.448;2022-10-29T04:18:23;14.13;;;5.18;;
25948;SDS011;13961;51.178;4.448;2022-10-29T04:20:49;14.07;;;5.03;;
25948;SDS011;13961;51.178;4.448;2022-10-29T04:23:15;13.32;;;4.97;;
25948;SDS011;13961;51.178;4.448;2022-10-29T04:25:41;10.73;;;5.07;;
25948;SDS011;13961;51.178;4.448;2022-10-29T04:28:07;12.75;;;5.25;;
25948;SDS011;13961;51.178;4.448;2022-10-29T04:30:34;16.58;;;4.75;;
25948;SDS011;13961;51.178;4.448;2022-10-29T04:32:59;10.98;;;5.65;;
25948;SDS011;13961;51.178;4.448;2022-10-29T04:35:25;15.50;;;5.70;;
25948;SDS011;13961;51.178;4.448;2022-10-29T04:37:52;12.15;;;5.65;;
25948;SDS011;13961;51.178;4.448;2022-10-29T04:40:20;17.15;;;6.20;;
25948;SDS011;13961;51.178;4.448;2022-10-29T04:42:47;10.57;;;5.65;;
25948;SDS011;13961;51.178;4.448;2022-10-29T04:45:13;16.60;;;5.75;;
25948;SDS011;13961;51.178;4.448;2022-10-29T04:47:39;12.77;;;5.25;;
25948;SDS011;13961;51.178;4.448;2022-10-29T04:50:05;14.85;;;5.70;;
25948;SDS011;13961;51.178;4.448;2022-10-29T04:52:31;18.88;;;6.32;;
25948;SDS011;13961;51.178;4.448;2022-10-29T04:54:56;21.58;;;6.25;;
25948;SDS011;13961;51.178;4.448;2022-10-29T04:57:22;13.93;;;6.50;;
25948;SDS011;13961;51.178;4.448;2022-10-29T04:59:48;14.70;;;6.82;;
25948;SDS011;13961;51.178;4.448;2022-10-29T05:02:13;14.68;;;6.47;;
25948;SDS011;13961;51.178;4.448;2022-10-29T05:04:39;14.73;;;6.63;;
25948;SDS011;13961;51.178;4.448;2022-10-29T05:07:05;13.82;;;6.57;;
25948;SDS011;13961;51.178;4.448;2022-10-29T05:09:31;16.73;;;7.00;;
25948;SDS011;13961;51.178;4.448;2022-10-29T05:11:57;14.00;;;7.38;;
25948;SDS011;13961;51.178;4.448;2022-10-29T05:14:22;13.50;;;6.80;;
25948;SDS011;13961;51.178;4.448;2022-10-29T05:16:48;19.50;;;7.00;;
25948;SDS011;13961;51.178;4.448;2022-10-29T05:19:14;17.20;;;7.90;;
25948;SDS011;13961;51.178;4.448;2022-10-29T05:21:39;19.33;;;8.05;;
25948;SDS011;13961;51.178;4.448;2022-10-29T05:24:05;17.20;;;7.43;;
25948;SDS011;13961;51.178;4.448;2022-10-29T05:26:31;19.55;;;8.68;;
25948;SDS011;13961;51.178;4.448;2022-10-29T05:28:57;18.42;;;7.28;;
25948;SDS011;13961;51.178;4.448;2022-10-29T05:31:23;15.25;;;7.25;;
25948;SDS011;13961;51.178;4.448;2022-10-29T05:33:50;16.50;;;7.95;;
25948;SDS011;13961;51.178;4.448;2022-10-29T05:36:18;19.27;;;7.93;;
25948;SDS011;13961;51.178;4.448;2022-10-29T05:38:43;20.65;;;7.85;;
25948;SDS011;13961;51.178;4.448;2022-10-29T05:41:09;21.45;;;8.50;;
25948;SDS011;13961;51.178;4.448;2022-10-29T05:43:35;23.23;;;8.18;;
25948;SDS011;13961;51.178;4.448;2022-10-29T05:46:01;17.80;;;7.50;;
25948;SDS011;13961;51.178;4.448;2022-10-29T05:48:29;14.90;;;7.30;;
25948;SDS011;13961;51.178;4.448;2022-10-29T05:50:56;19.48;;;8.70;;
25948;SDS011;13961;51.178;4.448;2022-10-29T05:53:22;15.25;;;8.05;;
25948;SDS011;13961;51.178;4.448;2022-10-29T05:55:47;16.27;;;7.38;;
25948;SDS011;13961;51.178;4.448;2022-10-29T05:58:13;15.88;;;7.25;;
25948;SDS011;13961;51.178;4.448;2022-10-29T06:00:40;12.38;;;7.72;;
25948;SDS011;13961;51.178;4.448;2022-10-29T06:03:14;21.73;;;7.88;;
25948;SDS011;13961;51.178;4.448;2022-10-29T06:05:42;20.55;;;7.90;;
25948;SDS011;13961;51.178;4.448;2022-10-29T06:08:08;14.68;;;8.13;;
25948;SDS011;13961;51.178;4.448;2022-10-29T06:10:33;19.73;;;8.65;;
25948;SDS011;13961;51.178;4.448;2022-10-29T06:12:59;15.18;;;7.78;;
25948;SDS011;13961;51.178;4.448;2022-10-29T06:15:25;17.15;;;7.68;;
25948;SDS011;13961;51.178;4.448;2022-10-29T06:17:50;13.10;;;7.53;;
25948;SDS011;13961;51.178;4.448;2022-10-29T06:20:18;15.65;;;7.68;;
25948;SDS011;13961;51.178;4.448;2022-10-29T06:22:45;21.23;;;7.47;;
25948;SDS011;13961;51.178;4.448;2022-10-29T06:25:10;17.40;;;7.55;;
25948;SDS011;13961;51.178;4.448;2022-10-29T06:30:05;18.15;;;8.32;;
25948;SDS011;13961;51.178;4.448;2022-10-29T06:32:31;13.27;;;7.80;;
25948;SDS011;13961;51.178;4.448;2022-10-29T06:34:57;20.58;;;8.00;;
25948;SDS011;13961;51.178;4.448;2022-10-29T06:37:22;15.80;;;8.43;;
25948;SDS011;13961;51.178;4.448;2022-10-29T06:39:48;18.60;;;8.50;;
25948;SDS011;13961;51.178;4.448;2022-10-29T06:42:14;21.98;;;8.80;;
25948;SDS011;13961;51.178;4.448;2022-10-29T06:44:39;20.08;;;8.90;;
25948;SDS011;13961;51.178;4.448;2022-10-29T06:47:05;19.83;;;8.55;;
25948;SDS011;13961;51.178;4.448;2022-10-29T06:49:31;19.13;;;8.68;;
25948;SDS011;13961;51.178;4.448;2022-10-29T06:51:57;24.25;;;10.07;;
25948;SDS011;13961;51.178;4.448;2022-10-29T06:54:24;21.55;;;8.80;;
25948;SDS011;13961;51.178;4.448;2022-10-29T06:56:49;19.27;;;10.05;;
25948;SDS011;13961;51.178;4.448;2022-10-29T06:59:15;22.23;;;9.70;;
25948;SDS011;13961;51.178;4.448;2022-10-29T07:01:42;18.50;;;9.52;;
25948;SDS011;13961;51.178;4.448;2022-10-29T07:04:07;17.85;;;9.35;;
25948;SDS011;13961;51.178;4.448;2022-10-29T07:06:33;21.40;;;10.40;;
25948;SDS011;13961;51.178;4.448;2022-10-29T07:08:59;16.60;;;8.98;;
25948;SDS011;13961;51.178;4.448;2022-10-29T07:11:24;20.17;;;9.98;;
25948;SDS011;13961;51.178;4.448;2022-10-29T07:13:50;21.65;;;10.02;;
25948;SDS011;13961;51.178;4.448;2022-10-29T07:16:21;21.08;;;10.40;;
25948;SDS011;13961;51.178;4.448;2022-10-29T07:18:47;20.95;;;10.52;;
25948;SDS011;13961;51.178;4.448;2022-10-29T07:21:13;25.00;;;9.60;;
25948;SDS011;13961;51.178;4.448;2022-10-29T07:23:38;15.73;;;9.77;;
25948;SDS011;13961;51.178;4.448;2022-10-29T07:26:04;17.95;;;10.07;;
25948;SDS011;13961;51.178;4.448;2022-10-29T07:28:30;22.33;;;10.40;;
25948;SDS011;13961;51.178;4.448;2022-10-29T07:30:57;17.88;;;9.45;;
25948;SDS011;13961;51.178;4.448;2022-10-29T07:33:26;18.92;;;9.73;;
25948;SDS011;13961;51.178;4.448;2022-10-29T07:35:55;18.60;;;9.63;;
25948;SDS011;13961;51.178;4.448;2022-10-29T07:38:23;22.00;;;9.65;;
25948;SDS011;13961;51.178;4.448;2022-10-29T07:40:50;17.60;;;9.27;;
25948;SDS011;13961;51.178;4.448;2022-10-29T07:43:16;19.58;;;8.82;;
25948;SDS011;13961;51.178;4.448;2022-10-29T07:45:46;22.50;;;9.52;;
25948;SDS011;13961;51.178;4.448;2022-10-29T07:48:22;15.25;;;7.35;;
25948;SDS011;13961;51.178;4.448;2022-10-29T07:50:47;15.60;;;7.57;;
25948;SDS011;13961;51.178;4.448;2022-10-29T07:53:13;15.80;;;7.50;;
25948;SDS011;13961;51.178;4.448;2022-10-29T07:55:40;20.95;;;8.05;;
25948;SDS011;13961;51.178;4.448;2022-10-29T07:58:08;15.27;;;7.45;;
25948;SDS011;13961;51.178;4.448;2022-10-29T08:00:37;11.75;;;6.55;;
25948;SDS011;13961;51.178;4.448;2022-10-29T08:03:05;12.95;;;6.95;;
25948;SDS011;13961;51.178;4.448;2022-10-29T08:05:31;13.10;;;7.25;;
25948;SDS011;13961;51.178;4.448;2022-10-29T08:07:57;12.93;;;7.35;;
25948;SDS011;13961;51.178;4.448;2022-10-29T08:10:23;13.38;;;7.00;;
25948;SDS011;13961;51.178;4.448;2022-10-29T08:15:16;13.35;;;6.90;;
25948;SDS011;13961;51.178;4.448;2022-10-29T08:17:42;12.82;;;7.60;;
25948;SDS011;13961;51.178;4.448;2022-10-29T08:20:08;14.38;;;7.03;;
25948;SDS011;13961;51.178;4.448;2022-10-29T08:22:34;15.80;;;7.70;;
25948;SDS011;13961;51.178;4.448;2022-10-29T08:25:00;13.20;;;7.30;;
25948;SDS011;13961;51.178;4.448;2022-10-29T08:27:26;17.35;;;7.32;;
25948;SDS011;13961;51.178;4.448;2022-10-29T08:29:52;15.43;;;7.32;;
25948;SDS011;13961;51.178;4.448;2022-10-29T08:32:19;18.33;;;6.82;;
25948;SDS011;13961;51.178;4.448;2022-10-29T08:34:45;20.70;;;7.25;;
25948;SDS011;13961;51.178;4.448;2022-10-29T08:39:39;16.65;;;7.10;;
25948;SDS011;13961;51.178;4.448;2022-10-29T08:42:12;15.02;;;7.13;;
25948;SDS011;13961;51.178;4.448;2022-10-29T08:47:14;14.82;;;6.45;;
25948;SDS011;13961;51.178;4.448;2022-10-29T08:49:46;15.43;;;6.78;;
25948;SDS011;13961;51.178;4.448;2022-10-29T08:52:38;14.65;;;6.90;;
25948;SDS011;13961;51.178;4.448;2022-10-29T08:57:33;15.40;;;6.88;;
25948;SDS011;13961;51.178;4.448;2022-10-29T09:00:06;11.85;;;6.45;;
25948;SDS011;13961;51.178;4.448;2022-10-29T09:02:41;19.70;;;6.70;;
25948;SDS011;13961;51.178;4.448;2022-10-29T09:05:14;16.35;;;6.45;;
25948;SDS011;13961;51.178;4.448;2022-10-29T09:07:45;12.07;;;5.63;;
25948;SDS011;13961;51.178;4.448;2022-10-29T09:21:21;14.25;;;6.13;;
25948;SDS011;13961;51.178;4.448;2022-10-29T09:23:58;13.73;;;6.00;;
25948;SDS011;13961;51.178;4.448;2022-10-29T09:35:05;14.05;;;5.72;;
25948;SDS011;13961;51.178;4.448;2022-10-29T09:37:42;14.27;;;5.50;;
25948;SDS011;13961;51.178;4.448;2022-10-29T09:42:48;11.82;;;4.90;;
25948;SDS011;13961;51.178;4.448;2022-10-29T09:45:16;11.70;;;5.03;;
25948;SDS011;13961;51.178;4.448;2022-10-29T09:52:47;10.68;;;5.38;;
25948;SDS011;13961;51.178;4.448;2022-10-29T09:55:22;13.30;;;4.88;;
25948;SDS011;13961;51.178;4.448;2022-10-29T09:57:53;11.25;;;4.90;;
25948;SDS011;13961;51.178;4.448;2022-10-29T10:00:25;8.90;;;4.50;;
25948;SDS011;13961;51.178;4.448;2022-10-29T10:05:28;11.68;;;4.55;;
25948;SDS011;13961;51.178;4.448;2022-10-29T10:08:10;10.68;;;4.28;;
25948;SDS011;13961;51.178;4.448;2022-10-29T10:10:50;8.98;;;4.45;;
25948;SDS011;13961;51.178;4.448;2022-10-29T10:13:18;12.68;;;4.68;;
25948;SDS011;13961;51.178;4.448;2022-10-29T10:15:50;10.50;;;4.03;;
25948;SDS011;13961;51.178;4.448;2022-10-29T10:18:18;11.05;;;4.57;;
25948;SDS011;13961;51.178;4.448;2022-10-29T10:23:27;11.05;;;4.47;;
25948;SDS011;13961;51.178;4.448;2022-10-29T10:26:02;10.57;;;4.18;;
25948;SDS011;13961;51.178;4.448;2022-10-29T10:28:29;11.63;;;3.97;;
25948;SDS011;13961;51.178;4.448;2022-10-29T10:33:33;12.52;;;4.80;;
25948;SDS011;13961;51.178;4.448;2022-10-29T10:36:04;11.80;;;3.95;;
25948;SDS011;13961;51.178;4.448;2022-10-29T10:38:45;13.70;;;4.60;;
25948;SDS011;13961;51.178;4.448;2022-10-29T10:41:20;11.52;;;3.95;;
25948;SDS011;13961;51.178;4.448;2022-10-29T10:43:49;10.88;;;4.28;;
25948;SDS011;13961;51.178;4.448;2022-10-29T10:46:16;13.43;;;4.30;;
25948;SDS011;13961;51.178;4.448;2022-10-29T10:48:55;14.57;;;4.30;;
25948;SDS011;13961;51.178;4.448;2022-10-29T10:51:24;19.77;;;4.38;;
25948;SDS011;13961;51.178;4.448;2022-10-29T10:53:54;11.23;;;4.35;;
25948;SDS011;13961;51.178;4.448;2022-10-29T10:56:21;13.25;;;4.15;;
25948;SDS011;13961;51.178;4.448;2022-10-29T10:58:49;10.25;;;3.50;;
25948;SDS011;13961;51.178;4.448;2022-10-29T11:01:33;13.50;;;4.00;;
25948;SDS011;13961;51.178;4.448;2022-10-29T11:06:43;11.10;;;4.20;;
25948;SDS011;13961;51.178;4.448;2022-10-29T11:09:23;8.02;;;3.42;;
25948;SDS011;13961;51.178;4.448;2022-10-29T11:19:57;11.77;;;3.90;;
25948;SDS011;13961;51.178;4.448;2022-10-29T11:22:28;6.95;;;3.40;;
25948;SDS011;13961;51.178;4.448;2022-10-29T11:30:45;12.73;;;3.53;;
25948;SDS011;13961;51.178;4.448;2022-10-29T11:33:24;11.82;;;3.78;;
25948;SDS011;13961;51.178;4.448;2022-10-29T11:36:05;11.43;;;3.90;;
25948;SDS011;13961;51.178;4.448;2022-10-29T11:38:40;11.00;;;3.58;;
25948;SDS011;13961;51.178;4.448;2022-10-29T11:41:16;13.23;;;3.95;;
25948;SDS011;13961;51.178;4.448;2022-10-29T11:44:02;8.90;;;3.65;;
25948;SDS011;13961;51.178;4.448;2022-10-29T11:46:33;10.93;;;3.63;;
25948;SDS011;13961;51.178;4.448;2022-10-29T11:52:07;7.18;;;3.40;;
25948;SDS011;13961;51.178;4.448;2022-10-29T12:05:06;13.38;;;3.80;;
25948;SDS011;13961;51.178;4.448;2022-10-29T12:07:50;11.20;;;4.25;;
25948;SDS011;13961;51.178;4.448;2022-10-29T12:10:31;10.48;;;3.70;;
25948;SDS011;13961;51.178;4.448;2022-10-29T12:27:16;13.13;;;4.13;;
25948;SDS011;13961;51.178;4.448;2022-10-29T12:32:26;11.50;;;3.47;;
25948;SDS011;13961;51.178;4.448;2022-10-29T12:34:58;10.95;;;4.22;;
25948;SDS011;13961;51.178;4.448;2022-10-29T12:37:45;9.98;;;4.03;;
25948;SDS011;13961;51.178;4.448;2022-10-29T12:40:32;11.52;;;3.70;;
25948;SDS011;13961;51.178;4.448;2022-10-29T12:43:05;14.38;;;3.72;;
25948;SDS011;13961;51.178;4.448;2022-10-29T12:48:20;10.00;;;3.88;;
25948;SDS011;13961;51.178;4.448;2022-10-29T12:51:22;8.68;;;3.30;;
25948;SDS011;13961;51.178;4.448;2022-10-29T12:56:40;11.20;;;3.58;;
25948;SDS011;13961;51.178;4.448;2022-10-29T13:01:49;10.30;;;3.78;;
25948;SDS011;13961;51.178;4.448;2022-10-29T13:04:26;13.18;;;3.45;;
25948;SDS011;13961;51.178;4.448;2022-10-29T13:09:31;10.70;;;3.92;;
25948;SDS011;13961;51.178;4.448;2022-10-29T13:12:01;14.43;;;4.18;;
25948;SDS011;13961;51.178;4.448;2022-10-29T13:14:28;12.27;;;4.20;;
25948;SDS011;13961;51.178;4.448;2022-10-29T13:16:58;10.23;;;3.50;;
25948;SDS011;13961;51.178;4.448;2022-10-29T13:19:30;13.07;;;4.13;;
25948;SDS011;13961;51.178;4.448;2022-10-29T13:27:51;14.15;;;3.55;;
25948;SDS011;13961;51.178;4.448;2022-10-29T13:32:49;8.95;;;4.03;;
25948;SDS011;13961;51.178;4.448;2022-10-29T13:48:21;10.63;;;4.03;;
25948;SDS011;13961;51.178;4.448;2022-10-29T13:50:51;12.52;;;3.45;;
25948;SDS011;13961;51.178;4.448;2022-10-29T13:53:22;16.88;;;3.72;;
25948;SDS011;13961;51.178;4.448;2022-10-29T13:55:54;13.52;;;3.78;;
25948;SDS011;13961;51.178;4.448;2022-10-29T13:58:31;7.53;;;3.75;;
25948;SDS011;13961;51.178;4.448;2022-10-29T14:01:01;8.10;;;3.42;;
25948;SDS011;13961;51.178;4.448;2022-10-29T14:03:34;13.10;;;3.60;;
25948;SDS011;13961;51.178;4.448;2022-10-29T14:06:15;14.55;;;3.75;;
25948;SDS011;13961;51.178;4.448;2022-10-29T14:09:10;13.40;;;3.85;;
25948;SDS011;13961;51.178;4.448;2022-10-29T14:11:42;15.35;;;3.63;;
25948;SDS011;13961;51.178;4.448;2022-10-29T14:14:20;10.77;;;3.80;;
25948;SDS011;13961;51.178;4.448;2022-10-29T14:16:49;7.10;;;3.45;;
25948;SDS011;13961;51.178;4.448;2022-10-29T14:19:36;10.50;;;3.92;;
25948;SDS011;13961;51.178;4.448;2022-10-29T14:22:14;7.50;;;2.90;;
25948;SDS011;13961;51.178;4.448;2022-10-29T14:25:00;11.00;;;3.30;;
25948;SDS011;13961;51.178;4.448;2022-10-29T14:27:44;8.43;;;4.13;;
25948;SDS011;13961;51.178;4.448;2022-10-29T14:30:11;13.18;;;3.38;;
25948;SDS011;13961;51.178;4.448;2022-10-29T14:32:38;10.52;;;3.95;;
25948;SDS011;13961;51.178;4.448;2022-10-29T14:35:05;12.63;;;3.78;;
25948;SDS011;13961;51.178;4.448;2022-10-29T14:37:34;12.57;;;3.53;;
25948;SDS011;13961;51.178;4.448;2022-10-29T14:40:05;14.88;;;3.70;;
25948;SDS011;13961;51.178;4.448;2022-10-29T14:42:53;7.95;;;3.42;;
25948;SDS011;13961;51.178;4.448;2022-10-29T14:45:23;9.68;;;3.20;;
25948;SDS011;13961;51.178;4.448;2022-10-29T14:47:53;12.67;;;3.97;;
25948;SDS011;13961;51.178;4.448;2022-10-29T14:50:22;9.52;;;3.20;;
25948;SDS011;13961;51.178;4.448;2022-10-29T14:52:53;11.85;;;4.43;;
25948;SDS011;13961;51.178;4.448;2022-10-29T14:55:32;12.48;;;3.90;;
25948;SDS011;13961;51.178;4.448;2022-10-29T15:00:36;9.73;;;3.50;;
25948;SDS011;13961;51.178;4.448;2022-10-29T15:03:03;13.38;;;3.58;;
25948;SDS011;13961;51.178;4.448;2022-10-29T15:05:31;12.25;;;3.65;;
25948;SDS011;13961;51.178;4.448;2022-10-29T15:10:55;10.43;;;3.72;;
25948;SDS011;13961;51.178;4.448;2022-10-29T15:15:59;12.73;;;3.90;;
25948;SDS011;13961;51.178;4.448;2022-10-29T15:18:30;13.25;;;3.83;;
25948;SDS011;13961;51.178;4.448;2022-10-29T15:20:57;12.52;;;3.58;;
25948;SDS011;13961;51.178;4.448;2022-10-29T15:25:50;11.38;;;3.60;;
25948;SDS011;13961;51.178;4.448;2022-10-29T15:28:22;12.90;;;3.90;;
25948;SDS011;13961;51.178;4.448;2022-10-29T15:30:50;13.55;;;3.63;;
25948;SDS011;13961;51.178;4.448;2022-10-29T15:33:17;11.27;;;3.92;;
25948;SDS011;13961;51.178;4.448;2022-10-29T15:35:52;10.40;;;3.25;;
25948;SDS011;13961;51.178;4.448;2022-10-29T15:41:28;15.45;;;3.80;;
25948;SDS011;13961;51.178;4.448;2022-10-29T15:44:00;14.93;;;3.55;;
25948;SDS011;13961;51.178;4.448;2022-10-29T15:46:26;13.65;;;3.78;;
25948;SDS011;13961;51.178;4.448;2022-10-29T15:48:53;8.52;;;3.20;;
25948;SDS011;13961;51.178;4.448;2022-10-29T15:51:20;10.38;;;3.55;;
25948;SDS011;13961;51.178;4.448;2022-10-29T15:53:49;11.65;;;4.70;;
25948;SDS011;13961;51.178;4.448;2022-10-29T15:58:44;14.80;;;3.35;;
25948;SDS011;13961;51.178;4.448;2022-10-29T16:01:11;9.98;;;3.30;;
25948;SDS011;13961;51.178;4.448;2022-10-29T16:03:39;12.65;;;3.90;;
25948;SDS011;13961;51.178;4.448;2022-10-29T16:06:07;10.48;;;4.50;;
25948;SDS011;13961;51.178;4.448;2022-10-29T16:08:47;10.60;;;3.92;;
25948;SDS011;13961;51.178;4.448;2022-10-29T16:11:16;13.98;;;3.97;;
25948;SDS011;13961;51.178;4.448;2022-10-29T16:13:50;13.45;;;5.45;;
25948;SDS011;13961;51.178;4.448;2022-10-29T16:16:17;10.57;;;3.53;;
25948;SDS011;13961;51.178;4.448;2022-10-29T16:18:45;13.85;;;4.32;;
25948;SDS011;13961;51.178;4.448;2022-10-29T16:21:18;9.98;;;3.90;;
25948;SDS011;13961;51.178;4.448;2022-10-29T16:23:47;11.55;;;3.50;;
25948;SDS011;13961;51.178;4.448;2022-10-29T16:26:14;7.45;;;3.88;;
25948;SDS011;13961;51.178;4.448;2022-10-29T16:28:41;8.38;;;3.65;;
25948;SDS011;13961;51.178;4.448;2022-10-29T16:31:32;12.15;;;3.72;;
25948;SDS011;13961;51.178;4.448;2022-10-29T16:33:58;10.27;;;3.53;;
25948;SDS011;13961;51.178;4.448;2022-10-29T16:36:27;11.52;;;3.83;;
25948;SDS011;13961;51.178;4.448;2022-10-29T16:38:53;8.27;;;4.15;;
25948;SDS011;13961;51.178;4.448;2022-10-29T16:41:19;12.27;;;3.45;;
25948;SDS011;13961;51.178;4.448;2022-10-29T16:43:45;12.85;;;4.43;;
25948;SDS011;13961;51.178;4.448;2022-10-29T16:46:11;10.23;;;3.85;;
25948;SDS011;13961;51.178;4.448;2022-10-29T16:48:38;12.20;;;3.88;;
25948;SDS011;13961;51.178;4.448;2022-10-29T16:51:04;12.40;;;4.00;;
25948;SDS011;13961;51.178;4.448;2022-10-29T16:53:32;10.70;;;4.50;;
25948;SDS011;13961;51.178;4.448;2022-10-29T16:55:59;9.07;;;3.95;;
25948;SDS011;13961;51.178;4.448;2022-10-29T16:58:25;13.00;;;3.90;;
25948;SDS011;13961;51.178;4.448;2022-10-29T17:00:59;9.57;;;4.70;;
25948;SDS011;13961;51.178;4.448;2022-10-29T17:03:26;19.63;;;4.47;;
25948;SDS011;13961;51.178;4.448;2022-10-29T17:05:52;10.98;;;3.97;;
25948;SDS011;13961;51.178;4.448;2022-10-29T17:08:18;11.15;;;4.32;;
25948;SDS011;13961;51.178;4.448;2022-10-29T17:10:44;11.25;;;4.05;;
25948;SDS011;13961;51.178;4.448;2022-10-29T17:13:10;11.32;;;4.20;;
25948;SDS011;13961;51.178;4.448;2022-10-29T17:15:39;12.32;;;4.32;;
25948;SDS011;13961;51.178;4.448;2022-10-29T17:18:05;16.48;;;4.38;;
25948;SDS011;13961;51.178;4.448;2022-10-29T17:20:31;10.32;;;4.15;;
25948;SDS011;13961;51.178;4.448;2022-10-29T17:22:56;12.38;;;4.25;;
25948;SDS011;13961;51.178;4.448;2022-10-29T17:25:22;12.40;;;4.43;;
25948;SDS011;13961;51.178;4.448;2022-10-29T17:27:47;12.77;;;4.70;;
25948;SDS011;13961;51.178;4.448;2022-10-29T17:30:13;12.10;;;4.45;;
25948;SDS011;13961;51.178;4.448;2022-10-29T17:32:39;15.10;;;4.38;;
25948;SDS011;13961;51.178;4.448;2022-10-29T17:35:05;11.75;;;4.43;;
25948;SDS011;13961;51.178;4.448;2022-10-29T17:37:30;14.23;;;4.60;;
25948;SDS011;13961;51.178;4.448;2022-10-29T17:39:56;11.80;;;4.43;;